Time;durP1;ratioP1;P1;durP2;ratioP2;P2;SDS_P1;SDS_P2;PMS_P1;PMS_P2;Temp;Humidity;BMP_temperature;BMP_pressure;BME280_temperature;BME280_humidity;BME280_pressure;Samples;Min_cycle;Max_cycle;Signal;HPM_P1;HPM_P2
2022/11/12 00:01:13;;;;;;;29.80;18.73;;;5.90;99.90;;;;;;4315193;28;10000273;-73
2022/11/12 00:03:39;;;;;;;28.38;19.02;;;5.90;99.90;;;;;;5001737;28;20124;-74
2022/11/12 00:06:04;;;;;;;31.52;19.02;;;5.80;99.90;;;;;;4993340;28;20465;-73
2022/11/12 00:08:30;;;;;;;30.52;18.30;;;5.70;99.90;;;;;;4994962;28;20053;-73
2022/11/12 00:10:56;;;;;;;29.10;18.35;;;5.70;99.90;;;;;;4996904;28;20670;-73
2022/11/12 00:13:21;;;;;;;30.23;18.67;;;5.60;99.90;;;;;;4996322;28;20174;-73
2022/11/12 00:15:47;;;;;;;30.95;18.20;;;5.50;99.90;;;;;;4993731;28;20246;-73
2022/11/12 00:18:13;;;;;;;30.63;18.67;;;5.50;99.90;;;;;;5011644;28;20014;-73
2022/11/12 00:20:38;;;;;;;27.05;17.35;;;5.50;99.90;;;;;;5001683;28;20206;-73
2022/11/12 00:23:04;;;;;;;27.65;17.58;;;5.50;99.90;;;;;;5002906;28;20532;-73
2022/11/12 00:25:30;;;;;;;28.38;17.58;;;5.50;99.90;;;;;;4997856;28;20021;-73
2022/11/12 00:28:07;;;;;;;30.48;19.27;;;5.60;99.90;;;;;;4996273;28;20738;-73
2022/11/12 00:30:35;;;;;;;31.17;18.77;;;5.60;99.90;;;;;;5002820;28;20045;-73
2022/11/12 00:33:02;;;;;;;30.80;18.90;;;5.60;99.90;;;;;;5019059;28;20026;-73
2022/11/12 00:35:30;;;;;;;31.90;19.88;;;5.50;99.90;;;;;;5017564;28;20029;-73
2022/11/12 00:37:56;;;;;;;40.90;20.73;;;5.50;99.90;;;;;;4996874;28;20095;-72
2022/11/12 00:40:22;;;;;;;53.10;20.02;;;5.50;99.90;;;;;;5007478;28;20385;-73
2022/11/12 00:42:50;;;;;;;43.60;19.42;;;5.40;99.90;;;;;;4997730;28;20584;-73
2022/11/12 00:45:16;;;;;;;48.53;17.77;;;5.40;99.90;;;;;;4998913;28;20033;-73
2022/11/12 00:47:42;;;;;;;35.03;17.63;;;5.30;99.90;;;;;;5001303;28;20745;-73
2022/11/12 00:50:08;;;;;;;60.00;17.65;;;5.30;99.90;;;;;;4994868;28;20068;-73
2022/11/12 00:52:33;;;;;;;29.98;17.13;;;5.30;99.90;;;;;;4999193;28;20057;-73
2022/11/12 00:54:59;;;;;;;23.83;16.38;;;5.20;99.90;;;;;;4999216;28;20026;-73
2022/11/12 00:57:25;;;;;;;24.63;16.25;;;5.20;99.90;;;;;;4999405;28;20034;-73
2022/11/12 00:59:50;;;;;;;28.58;16.00;;;5.20;99.90;;;;;;4994769;28;20036;-73
2022/11/12 01:02:16;;;;;;;56.45;15.00;;;5.20;99.90;;;;;;4998309;28;20057;-74
2022/11/12 01:04:41;;;;;;;19.45;13.60;;;5.30;99.90;;;;;;5010958;28;20455;-74
2022/11/12 01:07:07;;;;;;;24.88;14.18;;;5.30;99.90;;;;;;4998270;28;20030;-74
2022/11/12 01:09:32;;;;;;;28.13;13.25;;;5.30;99.90;;;;;;4999217;28;20429;-74
2022/11/12 01:11:58;;;;;;;24.15;12.23;;;5.30;99.90;;;;;;4997407;28;20478;-73
2022/11/12 01:14:24;;;;;;;18.98;11.95;;;5.30;99.90;;;;;;4993507;28;20032;-73
2022/11/12 01:16:49;;;;;;;19.55;11.23;;;5.30;99.90;;;;;;5004725;28;20175;-73
2022/11/12 01:19:15;;;;;;;15.45;11.38;;;5.30;99.90;;;;;;5001334;28;20440;-73
2022/11/12 01:21:42;;;;;;;17.10;10.90;;;5.30;99.90;;;;;;4993223;28;20531;-73
2022/11/12 01:24:09;;;;;;;18.63;11.70;;;5.30;99.90;;;;;;4998362;28;20029;-73
2022/11/12 01:26:35;;;;;;;27.55;11.57;;;5.20;99.90;;;;;;4990343;28;20025;-72
2022/11/12 01:29:01;;;;;;;24.25;11.80;;;5.20;99.90;;;;;;4998272;28;20029;-73
2022/11/12 01:31:29;;;;;;;19.23;11.65;;;5.20;99.90;;;;;;4963650;28;1130428;-73
2022/11/12 01:34:01;;;;;;;29.45;10.68;;;5.20;99.90;;;;;;5005636;28;20504;-73
2022/11/12 01:36:27;;;;;;;18.98;12.50;;;5.20;99.90;;;;;;4996322;28;20465;-73
2022/11/12 01:38:54;;;;;;;19.83;11.77;;;5.20;99.90;;;;;;5004040;28;20030;-73
2022/11/12 01:41:23;;;;;;;35.22;12.40;;;5.20;99.90;;;;;;4999056;28;20091;-73
2022/11/12 01:44:09;;;;;;;24.92;10.43;;;5.20;99.90;;;;;;4996739;28;20109;-73
2022/11/12 01:46:49;;;;;;;44.75;8.95;;;5.20;99.90;;;;;;4993942;28;20131;-73
2022/11/12 01:49:20;;;;;;;28.45;9.73;;;5.20;99.90;;;;;;5006470;28;20040;-73
2022/11/12 01:51:50;;;;;;;126.22;10.73;;;5.10;99.90;;;;;;4998331;28;20143;-73
2022/11/12 01:54:18;;;;;;;29.05;8.98;;;5.10;99.90;;;;;;4995306;28;20034;-73
2022/11/12 01:56:45;;;;;;;15.68;9.52;;;5.00;99.90;;;;;;4992455;28;20436;-73
2022/11/12 01:59:17;;;;;;;20.65;9.52;;;5.10;99.90;;;;;;4993620;28;20773;-73
2022/11/12 02:01:42;;;;;;;13.15;10.00;;;5.00;99.90;;;;;;4998907;28;20040;-73
2022/11/12 02:04:08;;;;;;;19.83;9.30;;;5.00;99.90;;;;;;4994287;28;20097;-73
2022/11/12 02:06:35;;;;;;;27.02;9.35;;;5.00;99.90;;;;;;5009510;28;20032;-73
2022/11/12 02:09:01;;;;;;;16.75;9.55;;;5.00;99.90;;;;;;5018521;28;20179;-73
2022/11/12 02:11:26;;;;;;;14.00;9.63;;;4.90;99.90;;;;;;5010130;28;20028;-73
2022/11/12 02:14:03;;;;;;;22.90;8.93;;;5.00;99.90;;;;;;5019225;28;20046;-73
2022/11/12 02:16:33;;;;;;;20.83;9.38;;;5.00;99.90;;;;;;5026073;28;20029;-73
2022/11/12 02:19:00;;;;;;;23.05;8.65;;;5.00;99.90;;;;;;5001919;28;20049;-73
2022/11/12 02:21:27;;;;;;;55.90;10.20;;;5.00;99.90;;;;;;4996441;28;20034;-73
2022/11/12 02:24:10;;;;;;;62.33;9.75;;;5.00;99.90;;;;;;5017707;28;20027;-74
2022/11/12 02:26:39;;;;;;;12.18;8.50;;;4.90;99.90;;;;;;5013742;28;20505;-74
2022/11/12 02:29:05;;;;;;;41.53;9.63;;;4.90;99.90;;;;;;5018763;28;20033;-74
2022/11/12 02:31:30;;;;;;;16.55;9.82;;;4.80;99.90;;;;;;5018644;28;20405;-73
2022/11/12 02:33:56;;;;;;;35.08;9.55;;;4.80;99.90;;;;;;5022187;28;20029;-74
2022/11/12 02:36:22;;;;;;;45.15;10.57;;;4.70;99.90;;;;;;5017636;28;20056;-73
2022/11/12 02:38:48;;;;;;;19.23;8.80;;;4.80;99.90;;;;;;4996963;28;20539;-74
2022/11/12 02:41:14;;;;;;;54.63;9.32;;;4.80;99.90;;;;;;4994472;28;20246;-73
2022/11/12 02:43:40;;;;;;;32.35;9.25;;;4.70;99.90;;;;;;4994578;28;20033;-73
2022/11/12 02:46:06;;;;;;;50.40;9.45;;;4.70;99.90;;;;;;4991366;28;20029;-73
2022/11/12 02:48:32;;;;;;;47.88;9.05;;;4.80;99.90;;;;;;5007672;28;20102;-74
2022/11/12 02:50:58;;;;;;;38.47;9.05;;;4.80;99.90;;;;;;5000244;28;20034;-73
2022/11/12 02:53:24;;;;;;;54.60;10.00;;;4.80;99.90;;;;;;4997862;28;20026;-73
2022/11/12 02:55:49;;;;;;;38.05;8.70;;;4.80;99.90;;;;;;4991610;28;20029;-73
2022/11/12 02:58:15;;;;;;;15.82;8.07;;;4.80;99.90;;;;;;4988988;28;20339;-73
2022/11/12 03:00:41;;;;;;;15.32;9.68;;;4.80;99.90;;;;;;4994673;28;20036;-73
2022/11/12 03:03:06;;;;;;;30.33;8.07;;;4.80;99.90;;;;;;4994043;28;20030;-73
2022/11/12 03:05:34;;;;;;;8.57;7.25;;;4.90;99.90;;;;;;4994546;28;20018;-73
2022/11/12 03:08:03;;;;;;;17.52;8.05;;;4.90;99.90;;;;;;4999186;28;20123;-73
2022/11/12 03:10:29;;;;;;;48.10;8.65;;;4.80;99.90;;;;;;5009802;28;20032;-74
2022/11/12 03:12:56;;;;;;;14.68;8.27;;;4.80;99.90;;;;;;4994002;28;20040;-74
2022/11/12 03:15:23;;;;;;;13.10;7.95;;;4.80;99.90;;;;;;4994883;28;20614;-73
2022/11/12 03:17:48;;;;;;;13.45;8.25;;;4.80;99.90;;;;;;5003590;28;20434;-73
2022/11/12 03:20:14;;;;;;;10.25;8.18;;;4.80;99.90;;;;;;4996431;28;20036;-74
2022/11/12 03:22:41;;;;;;;13.15;8.45;;;4.80;99.90;;;;;;4997413;28;20133;-73
2022/11/12 03:25:08;;;;;;;11.07;8.15;;;4.80;99.90;;;;;;4997665;28;20030;-73
2022/11/12 03:27:33;;;;;;;24.23;8.63;;;4.90;99.90;;;;;;4996030;28;20501;-74
2022/11/12 03:29:59;;;;;;;13.55;7.80;;;4.90;99.90;;;;;;5003032;28;20060;-73
2022/11/12 03:32:25;;;;;;;13.45;8.07;;;4.90;99.90;;;;;;4994974;28;20715;-73
2022/11/12 03:34:50;;;;;;;10.35;8.00;;;4.90;99.90;;;;;;4992227;28;20565;-74
2022/11/12 03:37:16;;;;;;;26.85;8.05;;;5.00;99.90;;;;;;4996822;28;20088;-73
2022/11/12 03:39:42;;;;;;;20.05;7.78;;;5.00;99.90;;;;;;5010910;28;20025;-73
2022/11/12 03:42:08;;;;;;;9.85;7.03;;;5.00;99.90;;;;;;4993689;28;20064;-73
2022/11/12 03:44:34;;;;;;;10.82;7.43;;;4.90;99.90;;;;;;4995747;28;20750;-73
2022/11/12 03:47:00;;;;;;;8.90;7.18;;;5.00;99.90;;;;;;4998119;28;20542;-73
2022/11/12 03:49:26;;;;;;;12.85;7.53;;;4.90;99.90;;;;;;5004018;28;20025;-73
2022/11/12 03:51:51;;;;;;;11.20;7.30;;;4.90;99.90;;;;;;4995142;28;20030;-73
2022/11/12 03:54:18;;;;;;;13.13;7.43;;;4.90;99.90;;;;;;4994034;28;20373;-73
2022/11/12 03:56:44;;;;;;;9.55;7.13;;;4.80;99.90;;;;;;4994968;28;20026;-72
2022/11/12 03:59:10;;;;;;;8.50;6.97;;;4.80;99.90;;;;;;4994995;28;20037;-72
2022/11/12 04:01:35;;;;;;;9.93;7.88;;;4.70;99.90;;;;;;5002987;28;20061;-73
2022/11/12 04:04:01;;;;;;;13.00;7.65;;;4.70;99.90;;;;;;4995709;28;20266;-73
2022/11/12 04:09:11;;;;;;;21.83;8.75;;;4.70;99.90;;;;;;5000214;28;20040;-73
2022/11/12 04:11:36;;;;;;;82.03;9.18;;;4.80;99.90;;;;;;4999876;28;20642;-72
2022/11/12 04:14:02;;;;;;;10.93;7.97;;;4.80;99.90;;;;;;4997115;28;20037;-73
2022/11/12 04:21:59;;;;;;;10.85;8.25;;;4.80;99.90;;;;;;5001039;28;20508;-73
2022/11/12 04:27:17;;;;;;;13.85;7.82;;;4.90;99.90;;;;;;5011338;28;20488;-73
2022/11/12 04:32:29;;;;;;;8.88;7.25;;;4.90;99.90;;;;;;5010281;28;20057;-73
2022/11/12 04:34:56;;;;;;;8.98;7.25;;;4.90;99.90;;;;;;5015692;28;20479;-73
2022/11/12 04:37:23;;;;;;;24.77;7.93;;;4.80;99.90;;;;;;5014632;28;20045;-73
2022/11/12 04:39:50;;;;;;;35.55;8.10;;;4.80;99.90;;;;;;5016597;28;20436;-73
2022/11/12 04:45:02;;;;;;;47.75;7.70;;;4.90;99.90;;;;;;5015085;28;20040;-73
2022/11/12 04:47:39;;;;;;;17.08;7.45;;;4.80;99.90;;;;;;5011543;28;20037;-73
2022/11/12 04:50:11;;;;;;;57.42;8.38;;;4.80;99.90;;;;;;5013205;28;20029;-73
2022/11/12 04:52:37;;;;;;;26.63;7.97;;;4.80;99.90;;;;;;5018132;28;20470;-73
2022/11/12 04:55:03;;;;;;;19.95;7.95;;;4.80;99.90;;;;;;5015108;28;20163;-73
2022/11/12 04:57:28;;;;;;;24.45;7.72;;;4.80;99.90;;;;;;5012236;28;20029;-73
2022/11/12 04:59:54;;;;;;;16.98;8.27;;;4.80;99.90;;;;;;5010327;28;20025;-73
2022/11/12 05:02:20;;;;;;;44.08;9.02;;;4.80;99.90;;;;;;5012181;28;20086;-73
2022/11/12 05:04:46;;;;;;;41.65;8.55;;;4.80;99.90;;;;;;5008564;28;20109;-73
2022/11/12 05:07:12;;;;;;;22.77;7.93;;;4.80;99.90;;;;;;5015831;28;20374;-72
2022/11/12 05:09:38;;;;;;;45.50;8.85;;;4.80;99.90;;;;;;5020145;28;20027;-73
2022/11/12 05:12:05;;;;;;;64.32;9.63;;;4.80;99.90;;;;;;5019698;28;20639;-72
2022/11/12 05:14:30;;;;;;;20.95;8.80;;;4.70;99.90;;;;;;5018216;28;20098;-72
2022/11/12 05:16:56;;;;;;;19.20;8.50;;;4.70;99.90;;;;;;5019134;28;20474;-73
2022/11/12 05:19:22;;;;;;;14.43;8.63;;;4.70;99.90;;;;;;5022673;28;20033;-73
2022/11/12 05:22:06;;;;;;;53.72;9.57;;;;;;;;;;5020455;28;20028;-73
2022/11/12 05:24:33;;;;;;;52.97;10.50;;;;;;;;;;5011906;28;20078;-72
2022/11/12 05:26:59;;;;;;;39.17;10.15;;;;;;;;;;5011351;28;20365;-73
2022/11/12 05:29:25;;;;;;;62.90;10.25;;;;;;;;;;5016161;28;20021;-72
2022/11/12 05:31:51;;;;;;;17.92;9.70;;;;;;;;;;5012297;28;20048;-73
2022/11/12 05:34:17;;;;;;;131.93;11.38;;;;;;;;;;5019086;28;21258;-72
2022/11/12 05:36:43;;;;;;;44.80;9.15;;;;;;;;;;5015563;28;20477;-73
2022/11/12 05:39:09;;;;;;;96.43;10.60;;;;;;;;;;5018520;28;20037;-73
2022/11/12 05:41:35;;;;;;;23.65;10.25;;;;;;;;;;5011768;28;20056;-72
2022/11/12 05:44:01;;;;;;;32.03;10.38;;;4.70;99.90;;;;;;5021107;28;20589;-72
2022/11/12 05:46:27;;;;;;;20.85;8.75;;;;;;;;;;5018947;28;20157;-72
2022/11/12 05:48:52;;;;;;;19.52;8.90;;;4.70;99.90;;;;;;5014304;28;20034;-72
2022/11/12 05:51:18;;;;;;;17.58;9.10;;;4.70;99.90;;;;;;5015366;28;20083;-70
2022/11/12 05:53:43;;;;;;;97.40;10.40;;;4.60;99.90;;;;;;5017315;28;20018;-71
2022/11/12 05:56:10;;;;;;;34.40;9.45;;;4.60;99.90;;;;;;5010102;28;20042;-71
2022/11/12 05:58:36;;;;;;;31.98;9.70;;;4.60;99.90;;;;;;5027956;28;20021;-70
2022/11/12 06:01:02;;;;;;;95.72;10.90;;;4.60;99.90;;;;;;5025015;28;20030;-70
2022/11/12 06:03:28;;;;;;;17.48;9.30;;;4.50;99.90;;;;;;5008844;28;20026;-70
2022/11/12 06:05:54;;;;;;;33.75;9.57;;;4.50;99.90;;;;;;5011449;28;20033;-71
2022/11/12 06:08:19;;;;;;;31.88;9.05;;;4.50;99.90;;;;;;5020358;28;20099;-70
2022/11/12 06:10:50;;;;;;;13.15;9.02;;;4.50;99.90;;;;;;5022409;28;20497;-70
2022/11/12 06:13:15;;;;;;;41.53;9.27;;;4.50;99.90;;;;;;5019395;28;20065;-70
2022/11/12 06:15:41;;;;;;;12.32;8.25;;;4.60;99.90;;;;;;5017458;28;20293;-70
2022/11/12 06:18:07;;;;;;;31.20;8.43;;;4.60;99.90;;;;;;5027219;28;20059;-71
2022/11/12 06:20:33;;;;;;;12.07;8.85;;;4.60;99.90;;;;;;5021278;28;20034;-70
2022/11/12 06:22:58;;;;;;;12.38;9.27;;;4.50;99.90;;;;;;5018690;28;20087;-70
2022/11/12 06:25:24;;;;;;;15.32;8.25;;;4.50;99.90;;;;;;5015686;28;20022;-70
2022/11/12 06:27:50;;;;;;;41.08;8.10;;;4.60;99.90;;;;;;5022079;28;20029;-70
2022/11/12 06:30:15;;;;;;;29.15;8.10;;;4.60;99.90;;;;;;5027125;28;20052;-70
2022/11/12 06:32:41;;;;;;;32.05;8.40;;;4.60;99.90;;;;;;5018676;28;20026;-70
2022/11/12 06:35:07;;;;;;;11.13;7.55;;;4.60;99.90;;;;;;5020548;28;20099;-70
2022/11/12 06:37:33;;;;;;;20.17;8.75;;;4.60;99.90;;;;;;5010784;28;20052;-70
2022/11/12 06:39:58;;;;;;;67.97;8.57;;;4.60;99.90;;;;;;5015178;28;20529;-70
2022/11/12 06:42:24;;;;;;;62.47;8.80;;;4.60;99.90;;;;;;5007764;28;20029;-70
2022/11/12 06:44:49;;;;;;;37.00;8.88;;;4.70;99.90;;;;;;5008451;28;20397;-70
2022/11/12 06:47:15;;;;;;;33.00;9.02;;;4.70;99.90;;;;;;5010451;28;20052;-70
2022/11/12 06:49:41;;;;;;;58.95;8.05;;;4.60;99.90;;;;;;5008377;28;20018;-70
2022/11/12 06:52:06;;;;;;;38.15;8.88;;;4.60;99.90;;;;;;5015648;28;20390;-70
2022/11/12 06:54:32;;;;;;;31.38;14.45;;;4.60;99.90;;;;;;5017220;28;20025;-70
2022/11/12 06:56:57;;;;;;;71.90;32.97;;;4.60;99.90;;;;;;5008328;28;20030;-70
2022/11/12 06:59:23;;;;;;;64.00;31.67;;;4.60;99.90;;;;;;5007660;28;20053;-70
2022/11/12 07:01:48;;;;;;;74.88;13.18;;;4.70;99.90;;;;;;5013806;28;20042;-70
2022/11/12 07:04:14;;;;;;;103.53;9.93;;;4.70;99.90;;;;;;5012847;28;20021;-71
2022/11/12 07:06:40;;;;;;;14.80;10.05;;;4.70;99.90;;;;;;5019886;28;20014;-70
2022/11/12 07:09:06;;;;;;;23.55;8.98;;;4.70;99.90;;;;;;5026852;28;20484;-70
2022/11/12 07:11:31;;;;;;;72.55;9.85;;;4.70;99.90;;;;;;5015209;28;20486;-70
2022/11/12 07:13:57;;;;;;;55.38;9.07;;;4.70;99.90;;;;;;5020283;28;20042;-70
2022/11/12 07:16:23;;;;;;;19.33;8.35;;;4.70;99.90;;;;;;5010902;28;20111;-71
2022/11/12 07:18:49;;;;;;;24.58;10.93;;;4.70;99.90;;;;;;5008012;28;20556;-70
2022/11/12 07:21:19;;;;;;;34.08;12.27;;;4.70;99.90;;;;;;5025131;28;20037;-70
2022/11/12 07:23:45;;;;;;;102.53;9.45;;;4.70;99.90;;;;;;5008079;28;20038;-71
2022/11/12 07:26:26;;;;;;;172.50;10.55;;;4.80;99.90;;;;;;5016003;28;20689;-70
2022/11/12 07:28:55;;;;;;;46.45;8.32;;;4.80;99.90;;;;;;5019458;28;20433;-70
2022/11/12 07:31:21;;;;;;;12.90;7.80;;;4.80;99.90;;;;;;5007496;28;20064;-71
2022/11/12 07:33:47;;;;;;;76.43;8.63;;;4.80;99.90;;;;;;5005128;28;20159;-71
2022/11/12 07:36:16;;;;;;;33.58;6.78;;;4.80;99.90;;;;;;5009231;28;20095;-70
2022/11/12 07:38:43;;;;;;;34.88;6.68;;;4.80;99.90;;;;;;5014928;28;20492;-70
2022/11/12 07:41:19;;;;;;;23.20;7.43;;;4.80;99.90;;;;;;5020156;28;20065;-70
2022/11/12 07:43:47;;;;;;;186.85;10.07;;;4.80;99.90;;;;;;5011837;28;20025;-70
2022/11/12 07:46:24;;;;;;;83.30;7.55;;;4.80;99.90;;;;;;5007714;28;20104;-70
2022/11/12 07:48:50;;;;;;;26.90;6.80;;;4.90;99.90;;;;;;5011942;28;20021;-70
2022/11/12 07:51:21;;;;;;;180.65;10.05;;;4.80;99.90;;;;;;5022220;28;20065;-70
2022/11/12 07:53:48;;;;;;;19.92;6.38;;;4.80;99.90;;;;;;5018641;28;20053;-70
2022/11/12 07:56:17;;;;;;;62.58;8.90;;;4.80;99.90;;;;;;5026840;28;20095;-70
2022/11/12 07:58:43;;;;;;;106.63;11.55;;;4.80;99.90;;;;;;5026157;28;20075;-70
2022/11/12 08:01:22;;;;;;;39.95;10.98;;;4.80;99.90;;;;;;5023972;28;20178;-70
2022/11/12 08:03:47;;;;;;;77.53;11.35;;;4.80;99.90;;;;;;5009425;28;20026;-70
2022/11/12 08:06:13;;;;;;;37.83;8.40;;;4.80;99.90;;;;;;5012854;28;20474;-70
2022/11/12 08:08:39;;;;;;;15.02;8.23;;;4.90;99.90;;;;;;5011525;28;20022;-70
2022/11/12 08:11:04;;;;;;;15.70;9.23;;;4.90;99.90;;;;;;5014272;28;20040;-70
2022/11/12 08:13:30;;;;;;;32.42;9.38;;;5.00;99.90;;;;;;5010769;28;20033;-70
2022/11/12 08:15:57;;;;;;;17.88;7.97;;;5.00;99.90;;;;;;5013723;28;20034;-70
2022/11/12 08:18:23;;;;;;;9.02;7.45;;;5.10;99.90;;;;;;5028469;28;20480;-70
2022/11/12 08:20:48;;;;;;;13.38;7.93;;;5.10;99.90;;;;;;5030469;28;20113;-71
2022/11/12 08:23:14;;;;;;;13.90;7.60;;;5.20;99.90;;;;;;5028749;28;20030;-70
2022/11/12 08:25:40;;;;;;;10.32;7.50;;;5.20;99.90;;;;;;5026859;28;20434;-70
2022/11/12 08:28:05;;;;;;;29.23;7.00;;;5.30;99.90;;;;;;5014824;28;20041;-70
2022/11/12 08:30:31;;;;;;;22.17;8.38;;;5.30;99.90;;;;;;5015175;28;20497;-71
2022/11/12 08:32:59;;;;;;;24.48;6.80;;;5.30;99.90;;;;;;5030172;28;20021;-70
2022/11/12 08:35:27;;;;;;;25.05;6.75;;;5.40;99.90;;;;;;5023376;28;20036;-70
2022/11/12 08:38:04;;;;;;;18.38;6.75;;;5.30;99.90;;;;;;5010721;28;20253;-70
2022/11/12 08:40:31;;;;;;;10.10;6.75;;;5.30;99.90;;;;;;5012058;28;21026;-70
2022/11/12 08:43:02;;;;;;;10.98;6.50;;;5.30;99.90;;;;;;5010057;28;20073;-71
2022/11/12 08:45:30;;;;;;;16.42;6.25;;;5.40;99.90;;;;;;5020051;28;20034;-70
2022/11/12 08:48:00;;;;;;;16.90;5.80;;;5.30;99.90;;;;;;5025878;28;20029;-71
2022/11/12 08:50:26;;;;;;;24.13;6.97;;;5.30;99.90;;;;;;5026837;28;20165;-70
2022/11/12 08:52:52;;;;;;;10.75;6.93;;;5.30;99.90;;;;;;5026828;28;20071;-70
2022/11/12 08:55:17;;;;;;;8.40;6.70;;;5.30;99.90;;;;;;5012361;28;20033;-70
2022/11/12 08:57:44;;;;;;;20.98;7.55;;;5.40;99.90;;;;;;5010236;28;20471;-70
2022/11/12 09:00:11;;;;;;;13.07;8.75;;;5.30;99.90;;;;;;5010216;28;20053;-70
2022/11/12 09:02:37;;;;;;;11.45;6.53;;;5.40;99.90;;;;;;5010305;28;20056;-70
2022/11/12 09:05:03;;;;;;;18.90;7.25;;;5.40;99.90;;;;;;5015875;28;20356;-71
2022/11/12 09:07:29;;;;;;;8.57;6.75;;;5.50;99.90;;;;;;5008647;28;20026;-70
2022/11/12 09:09:55;;;;;;;9.80;6.40;;;5.60;99.90;;;;;;5007708;28;20084;-70
2022/11/12 09:12:21;;;;;;;9.32;6.50;;;5.60;99.90;;;;;;5019159;28;20486;-70
2022/11/12 09:14:46;;;;;;;23.35;8.18;;;5.70;99.90;;;;;;5011086;28;20328;-70
2022/11/12 09:17:12;;;;;;;18.10;7.03;;;5.70;99.90;;;;;;5013223;28;20362;-70
2022/11/12 09:19:38;;;;;;;8.35;6.65;;;5.70;99.90;;;;;;5011915;28;20059;-70
2022/11/12 09:22:03;;;;;;;12.93;6.90;;;5.70;99.90;;;;;;5012401;28;20069;-70
2022/11/12 09:24:29;;;;;;;16.83;7.82;;;5.80;99.90;;;;;;5021217;28;20049;-71
2022/11/12 09:26:55;;;;;;;20.35;9.02;;;5.80;99.90;;;;;;5019247;28;20034;-70
2022/11/12 09:29:20;;;;;;;14.15;9.07;;;5.90;99.90;;;;;;5009901;28;20084;-70
2022/11/12 09:31:46;;;;;;;21.67;10.07;;;6.00;99.90;;;;;;5009411;28;20042;-71
2022/11/12 09:34:12;;;;;;;14.63;10.18;;;6.00;99.90;;;;;;5009787;28;20033;-71
2022/11/12 09:36:38;;;;;;;15.68;11.07;;;6.00;99.90;;;;;;5018338;28;20021;-70
2022/11/12 09:39:04;;;;;;;54.75;18.15;;;6.10;99.90;;;;;;5027940;28;20036;-70
2022/11/12 09:41:38;;;;;;;32.83;19.77;;;6.20;99.90;;;;;;5024100;28;20053;-71
2022/11/12 09:44:10;;;;;;;41.47;17.90;;;6.30;99.90;;;;;;5009239;28;20088;-71
2022/11/12 09:46:46;;;;;;;27.25;16.70;;;6.30;99.90;;;;;;5008356;28;20030;-71
2022/11/12 09:49:18;;;;;;;22.40;13.70;;;6.40;99.90;;;;;;5008942;28;20331;-71
2022/11/12 09:51:58;;;;;;;14.60;10.03;;;6.50;99.90;;;;;;5015068;28;20516;-71
2022/11/12 09:54:29;;;;;;;19.10;12.00;;;6.60;99.90;;;;;;5019781;28;20804;-70
2022/11/12 09:56:55;;;;;;;19.40;12.35;;;6.60;99.90;;;;;;5010121;28;20041;-71
2022/11/12 09:59:33;;;;;;;26.70;16.33;;;6.70;99.90;;;;;;5027836;28;20025;-71
2022/11/12 10:02:22;;;;;;;24.60;15.50;;;6.70;99.90;;;;;;5014597;28;20092;-70
2022/11/12 10:05:25;;;;;;;25.48;16.13;;;6.80;99.90;;;;;;5017347;28;20029;-70
2022/11/12 10:08:28;;;;;;;24.90;14.85;;;6.80;99.90;;;;;;5022012;28;20440;-70
2022/11/12 10:11:16;;;;;;;27.77;17.33;;;6.80;99.90;;;;;;5009277;28;20065;-70
2022/11/12 10:14:00;;;;;;;29.52;16.40;;;6.90;99.90;;;;;;5015143;28;20025;-70
2022/11/12 10:16:43;;;;;;;27.70;17.48;;;6.90;99.90;;;;;;5026294;28;20038;-70
2022/11/12 10:19:14;;;;;;;33.47;18.40;;;7.00;99.90;;;;;;5019226;28;20446;-70
2022/11/12 10:21:46;;;;;;;27.00;17.98;;;7.10;99.90;;;;;;5022633;28;20048;-70
2022/11/12 10:24:12;;;;;;;25.50;16.98;;;7.20;99.90;;;;;;5025698;28;20025;-71
2022/11/12 10:26:38;;;;;;;22.63;15.32;;;7.30;99.90;;;;;;5017253;28;20095;-70
2022/11/12 10:29:10;;;;;;;24.70;15.70;;;7.30;99.90;;;;;;5027994;28;20038;-70
2022/11/12 10:31:36;;;;;;;24.38;15.25;;;7.40;99.90;;;;;;5026284;28;20422;-70
2022/11/12 10:34:08;;;;;;;22.40;15.45;;;7.40;99.90;;;;;;5012161;28;20096;-70
2022/11/12 10:36:37;;;;;;;22.20;14.90;;;7.40;99.90;;;;;;5006979;28;20440;-70
2022/11/12 10:39:03;;;;;;;22.45;13.80;;;7.40;99.90;;;;;;5012840;28;20196;-70
2022/11/12 10:41:33;;;;;;;19.50;14.07;;;7.40;99.90;;;;;;5027139;28;20028;-70
2022/11/12 10:44:04;;;;;;;22.45;14.48;;;7.50;99.90;;;;;;5017111;28;20037;-70
2022/11/12 10:46:33;;;;;;;19.95;14.00;;;7.50;99.90;;;;;;5015062;28;20032;-70
2022/11/12 10:49:02;;;;;;;23.27;14.65;;;7.60;99.90;;;;;;5006186;28;20053;-71
2022/11/12 10:51:32;;;;;;;21.15;14.38;;;7.60;99.90;;;;;;5018499;28;20061;-70
2022/11/12 10:53:57;;;;;;;19.20;14.35;;;7.70;99.90;;;;;;5008109;28;20386;-71
2022/11/12 10:56:27;;;;;;;21.48;15.30;;;7.80;99.90;;;;;;5011389;28;20030;-70
2022/11/12 10:59:11;;;;;;;22.88;14.48;;;8.00;99.90;;;;;;5023453;28;20045;-71
2022/11/12 11:01:37;;;;;;;20.75;14.90;;;8.10;99.90;;;;;;5019224;28;20087;-71
2022/11/12 11:04:03;;;;;;;21.15;13.98;;;8.20;99.90;;;;;;5021659;28;20230;-70
2022/11/12 11:06:29;;;;;;;20.42;14.93;;;8.30;99.90;;;;;;5018130;28;20366;-71
2022/11/12 11:09:12;;;;;;;18.10;13.18;;;8.40;99.90;;;;;;5013121;28;20026;-70
2022/11/12 11:11:52;;;;;;;18.42;13.82;;;8.30;99.90;;;;;;5012316;28;20088;-70
2022/11/12 11:14:20;;;;;;;21.08;13.85;;;8.40;99.90;;;;;;5008876;28;20041;-71
2022/11/12 11:16:55;;;;;;;18.17;13.35;;;8.40;99.90;;;;;;5019066;28;20053;-71
2022/11/12 11:19:21;;;;;;;21.75;15.57;;;8.40;99.90;;;;;;5007392;28;20033;-70
2022/11/12 11:21:49;;;;;;;30.38;22.08;;;8.40;99.90;;;;;;5017502;28;20025;-70
2022/11/12 11:24:18;;;;;;;21.70;16.17;;;8.40;99.90;;;;;;5019826;28;20497;-70
2022/11/12 11:27:02;;;;;;;20.15;15.05;;;8.30;99.90;;;;;;5011673;28;20536;-70
2022/11/12 11:29:39;;;;;;;17.10;13.88;;;8.20;99.90;;;;;;5007766;28;20029;-71
2022/11/12 11:32:32;;;;;;;23.25;16.95;;;8.30;99.90;;;;;;5016029;28;20521;-70
2022/11/12 11:35:18;;;;;;;17.15;12.82;;;8.60;99.90;;;;;;5025942;28;20073;-71
2022/11/12 11:38:10;;;;;;;26.30;16.60;;;8.80;99.90;;;;;;5030359;28;20034;-71
2022/11/12 11:40:42;;;;;;;26.65;17.60;;;9.00;99.90;;;;;;5024992;28;20041;-70
2022/11/12 11:43:16;;;;;;;21.15;15.23;;;9.30;99.90;;;;;;5021593;28;20037;-70
2022/11/12 11:45:51;;;;;;;24.15;16.15;;;9.50;99.90;;;;;;5016635;28;20383;-70
2022/11/12 11:48:47;;;;;;;20.98;14.80;;;9.60;99.90;;;;;;5011868;28;20163;-70
2022/11/12 11:51:31;;;;;;;22.33;13.70;;;9.80;99.90;;;;;;5013149;28;20172;-70
2022/11/12 11:54:12;;;;;;;18.98;13.07;;;9.90;99.90;;;;;;5021588;28;20113;-71
2022/11/12 11:56:43;;;;;;;30.40;18.20;;;9.90;99.90;;;;;;5017919;28;20021;-70
2022/11/12 11:59:26;;;;;;;28.60;16.80;;;10.00;99.90;;;;;;5011894;28;20030;-71
2022/11/12 12:02:25;;;;;;;16.80;12.00;;;;;;;;;;5023716;28;20417;-71
2022/11/12 12:05:13;;;;;;;14.65;10.65;;;10.10;99.90;;;;;;5024497;28;20087;-71
2022/11/12 12:07:57;;;;;;;13.77;10.80;;;10.00;99.90;;;;;;5011720;28;20088;-71
2022/11/12 12:10:37;;;;;;;16.08;12.27;;;10.00;99.90;;;;;;5012869;28;20028;-71
2022/11/12 12:13:25;;;;;;;14.80;10.68;;;10.10;99.90;;;;;;5010822;28;20104;-71
2022/11/12 12:16:06;;;;;;;14.65;11.13;;;10.10;99.90;;;;;;5009129;28;20393;-71
2022/11/12 12:18:34;;;;;;;12.23;10.07;;;10.10;99.90;;;;;;5010948;28;20623;-72
2022/11/12 12:21:14;;;;;;;13.15;10.73;;;10.30;99.90;;;;;;5022841;28;20033;-71
2022/11/12 12:23:51;;;;;;;13.80;11.27;;;10.30;99.90;;;;;;5026577;28;20046;-71
2022/11/12 12:26:22;;;;;;;14.65;11.05;;;10.30;99.90;;;;;;5028798;28;20090;-71
2022/11/12 12:28:51;;;;;;;14.65;10.77;;;10.30;99.90;;;;;;5030162;28;20021;-72
2022/11/12 12:31:22;;;;;;;15.75;13.10;;;10.30;99.90;;;;;;5018841;28;20067;-71
2022/11/12 12:33:58;;;;;;;15.27;12.18;;;;;;;;;;5023724;28;20103;-71
2022/11/12 12:36:43;;;;;;;17.02;12.80;;;10.40;99.90;;;;;;5028149;28;20104;-71
2022/11/12 12:39:36;;;;;;;17.05;12.15;;;10.50;99.90;;;;;;5017793;28;20033;-71
2022/11/12 12:42:27;;;;;;;14.25;11.40;;;10.50;99.90;;;;;;5015816;28;20064;-71
2022/11/12 12:45:03;;;;;;;12.93;10.98;;;10.70;99.90;;;;;;5022735;28;20108;-71
2022/11/12 12:47:34;;;;;;;14.20;11.18;;;10.70;99.90;;;;;;5008327;28;20026;-71
2022/11/12 12:50:06;;;;;;;15.15;11.77;;;10.80;99.90;;;;;;5017865;28;20032;-71
2022/11/12 12:53:13;;;;;;;13.65;11.40;;;10.90;99.90;;;;;;5018749;28;20493;-71
2022/11/12 12:55:45;;;;;;;15.32;11.40;;;10.90;99.90;;;;;;5017083;28;20025;-71
2022/11/12 12:58:27;;;;;;;14.05;11.18;;;10.90;99.90;;;;;;5018407;28;20025;-70
2022/11/12 13:00:58;;;;;;;12.68;10.32;;;10.80;99.90;;;;;;5013476;28;20481;-71
2022/11/12 13:03:53;;;;;;;13.50;10.63;;;10.80;99.90;;;;;;5011750;28;20037;-71
2022/11/12 13:06:22;;;;;;;14.73;11.05;;;10.80;99.90;;;;;;5030040;28;20489;-71
2022/11/12 13:08:59;;;;;;;14.13;10.70;;;10.80;99.90;;;;;;5020848;28;20041;-71
2022/11/12 13:14:30;;;;;;;16.75;13.10;;;10.90;99.90;;;;;;5024973;28;20121;-71
2022/11/12 13:17:08;;;;;;;15.60;12.57;;;10.90;99.90;;;;;;5015143;28;20104;-71